createdAt,value
2023-01-30T00:01:59.201Z,11.60
2023-01-30T00:04:29.455Z,12.20
2023-01-30T00:06:57.617Z,10.40
2023-01-30T00:09:25.720Z,10.80
2023-01-30T00:11:53.817Z,7.60
2023-01-30T00:14:21.958Z,12.40
2023-01-30T00:16:50.221Z,11.60
2023-01-30T00:19:18.449Z,12.60
2023-01-30T00:21:48.958Z,12.80
2023-01-30T00:24:17.197Z,7.00
2023-01-30T00:26:45.467Z,10.80
2023-01-30T00:29:13.585Z,9.00
2023-01-30T00:31:41.805Z,10.00
2023-01-30T00:34:09.957Z,12.60
2023-01-30T00:36:38.264Z,13.40
2023-01-30T00:39:07.767Z,9.80
2023-01-30T00:41:49.713Z,11.20
2023-01-30T00:44:35.235Z,12.60
2023-01-30T00:47:07.411Z,10.00
2023-01-30T00:49:35.663Z,9.20
2023-01-30T00:52:04.166Z,9.80
2023-01-30T00:54:33.869Z,12.00
2023-01-30T00:57:02.189Z,9.00
2023-01-30T00:59:30.316Z,11.60
2023-01-30T01:01:58.618Z,9.00
2023-01-30T01:04:27.137Z,9.20
2023-01-30T01:06:55.269Z,11.60
2023-01-30T01:09:23.567Z,8.20
2023-01-30T01:11:53.908Z,8.60
2023-01-30T01:14:22.035Z,6.40
2023-01-30T01:16:50.301Z,9.20
2023-01-30T01:19:18.699Z,6.40
2023-01-30T01:21:46.797Z,10.80
2023-01-30T01:24:16.007Z,7.40
2023-01-30T01:26:45.087Z,10.80
2023-01-30T01:29:15.391Z,8.80
2023-01-30T01:31:43.776Z,9.20
2023-01-30T01:34:12.644Z,12.00
2023-01-30T01:36:56.087Z,12.00
2023-01-30T01:39:24.330Z,4.40
2023-01-30T01:41:51.443Z,12.60
2023-01-30T01:44:20.924Z,11.00
2023-01-30T01:46:51.418Z,14.20
2023-01-30T01:49:22.301Z,7.80
2023-01-30T01:51:53.024Z,11.20
2023-01-30T01:54:24.565Z,12.00
2023-01-30T01:56:53.102Z,10.80
2023-01-30T01:59:24.993Z,9.60
2023-01-30T02:01:55.481Z,6.40
2023-01-30T02:04:49.154Z,10.00
2023-01-30T02:07:18.789Z,7.00
2023-01-30T02:09:47.076Z,11.20
2023-01-30T02:12:16.102Z,10.40
2023-01-30T02:14:45.827Z,13.00
2023-01-30T02:17:34.962Z,9.00
2023-01-30T02:20:06.683Z,6.80
2023-01-30T02:22:45.625Z,10.40
2023-01-30T02:25:26.208Z,12.80
2023-01-30T02:28:15.031Z,12.20
2023-01-30T02:31:00.977Z,9.00
2023-01-30T02:33:40.037Z,10.40
2023-01-30T02:36:12.703Z,9.40
2023-01-30T02:38:43.485Z,11.60
2023-01-30T02:41:17.433Z,6.40
2023-01-30T02:43:52.193Z,10.40
2023-01-30T02:46:24.234Z,10.00
2023-01-30T02:48:56.553Z,12.00
2023-01-30T02:51:26.862Z,12.00
2023-01-30T02:53:55.331Z,9.60
2023-01-30T02:56:23.823Z,11.60
2023-01-30T02:58:55.020Z,6.60
2023-01-30T03:01:41.648Z,9.80
2023-01-30T03:04:27.866Z,12.20
2023-01-30T03:07:08.624Z,10.00
2023-01-30T03:09:43.333Z,13.40
2023-01-30T03:12:16.793Z,12.80
2023-01-30T03:14:49.835Z,11.80
2023-01-30T03:17:19.887Z,15.00
2023-01-30T03:19:49.901Z,12.00
2023-01-30T03:22:21.487Z,11.20
2023-01-30T03:24:52.656Z,9.40
2023-01-30T03:27:20.989Z,15.00
2023-01-30T03:29:49.430Z,12.40
2023-01-30T03:32:17.585Z,13.00
2023-01-30T03:34:45.907Z,9.40
2023-01-30T03:37:15.610Z,6.00
2023-01-30T03:39:44.026Z,14.20
2023-01-30T03:42:12.394Z,14.60
2023-01-30T03:44:40.519Z,10.60
2023-01-30T03:47:09.090Z,7.40
2023-01-30T03:49:37.244Z,12.60
2023-01-30T03:52:05.587Z,9.60
2023-01-30T03:54:35.371Z,10.00
2023-01-30T03:57:04.880Z,14.20
2023-01-30T03:59:33.463Z,12.20
2023-01-30T04:02:08.832Z,11.20
2023-01-30T04:04:37.439Z,12.20
2023-01-30T04:07:08.543Z,6.00
2023-01-30T04:09:40.017Z,11.60
2023-01-30T04:12:08.689Z,10.00
2023-01-30T04:14:42.606Z,10.40
2023-01-30T04:17:38.659Z,13.00
2023-01-30T04:20:27.066Z,10.40
2023-01-30T04:22:57.654Z,10.00
2023-01-30T04:25:29.190Z,12.00
2023-01-30T04:27:57.515Z,13.20
2023-01-30T04:30:30.900Z,9.80
2023-01-30T04:33:24.903Z,13.00
2023-01-30T04:35:54.569Z,11.20
2023-01-30T04:38:23.249Z,5.60
2023-01-30T04:40:53.262Z,13.40
2023-01-30T04:43:22.187Z,10.80
2023-01-30T04:46:12.944Z,10.80
2023-01-30T04:48:42.101Z,2.60
2023-01-30T04:51:11.036Z,11.60
2023-01-30T04:53:39.960Z,13.00
2023-01-30T04:56:11.339Z,8.20
2023-01-30T04:58:39.551Z,6.00
2023-01-30T05:01:15.600Z,12.40
2023-01-30T05:03:44.790Z,10.40
2023-01-30T05:06:12.936Z,12.00
2023-01-30T05:08:41.184Z,12.20
2023-01-30T05:11:11.905Z,10.60
2023-01-30T05:13:40.048Z,10.00
2023-01-30T05:16:08.380Z,11.60
2023-01-30T05:18:36.457Z,15.20
2023-01-30T05:21:05.326Z,13.00
2023-01-30T05:23:33.473Z,4.00
2023-01-30T05:26:02.161Z,10.00
2023-01-30T05:28:32.204Z,13.40
2023-01-30T05:31:02.603Z,11.60
2023-01-30T05:33:31.012Z,13.40
2023-01-30T05:35:59.423Z,11.40
2023-01-30T05:38:28.098Z,12.20
2023-01-30T05:40:59.958Z,13.40
2023-01-30T05:43:28.156Z,11.60
2023-01-30T05:45:58.360Z,12.20
2023-01-30T05:48:27.053Z,12.40
2023-01-30T05:50:56.396Z,11.20
2023-01-30T05:53:25.538Z,4.00
2023-01-30T05:55:56.409Z,6.80
2023-01-30T05:58:24.575Z,12.00
2023-01-30T06:00:53.053Z,13.80
2023-01-30T06:03:22.617Z,15.00
2023-01-30T06:05:50.677Z,4.00
2023-01-30T06:08:18.822Z,13.00
2023-01-30T06:10:46.993Z,9.80
2023-01-30T06:13:16.666Z,5.80
2023-01-30T06:15:44.907Z,8.20
2023-01-30T06:18:13.440Z,4.00
2023-01-30T06:20:43.019Z,12.40
2023-01-30T06:23:11.122Z,6.00
2023-01-30T06:25:39.288Z,13.00
2023-01-30T06:28:07.396Z,13.80
2023-01-30T06:30:35.566Z,12.00
2023-01-30T06:33:03.716Z,11.20
2023-01-30T06:35:32.030Z,10.20
2023-01-30T06:38:01.604Z,13.60
2023-01-30T06:40:29.883Z,10.40
2023-01-30T06:42:58.058Z,11.20
2023-01-30T06:45:26.203Z,11.40
2023-01-30T06:47:55.398Z,10.00
2023-01-30T06:50:24.657Z,8.40
2023-01-30T06:52:53.201Z,6.40
2023-01-30T06:55:25.122Z,10.80
2023-01-30T06:58:02.536Z,8.60
2023-01-30T07:00:31.238Z,12.80
2023-01-30T07:02:59.903Z,9.20
2023-01-30T07:05:29.067Z,10.00
2023-01-30T07:07:57.245Z,12.80
2023-01-30T07:10:29.329Z,11.60
2023-01-30T07:12:57.448Z,10.00
2023-01-30T07:15:25.574Z,10.40
2023-01-30T07:17:53.734Z,12.20
2023-01-30T07:20:21.853Z,12.80
2023-01-30T07:22:53.264Z,8.20
2023-01-30T07:25:21.935Z,12.60
2023-01-30T07:27:54.499Z,12.00
2023-01-30T07:30:22.601Z,9.80
2023-01-30T07:32:51.173Z,10.40
2023-01-30T07:35:19.509Z,12.20
2023-01-30T07:37:48.486Z,12.40
2023-01-30T07:40:16.913Z,6.80
2023-01-30T07:42:45.246Z,9.00
2023-01-30T07:45:16.256Z,10.80
2023-01-30T07:47:44.627Z,9.00
2023-01-30T07:50:12.974Z,12.20
2023-01-30T07:52:41.219Z,13.00
2023-01-30T07:55:09.660Z,6.00
2023-01-30T07:57:37.771Z,10.80
2023-01-30T08:00:06.521Z,9.40
2023-01-30T08:02:38.397Z,6.20
2023-01-30T08:05:06.958Z,9.60
2023-01-30T08:07:35.101Z,7.00
2023-01-30T08:10:03.234Z,9.75
2023-01-30T08:12:31.549Z,11.20
2023-01-30T08:14:59.626Z,11.20
2023-01-30T08:17:27.750Z,9.00
2023-01-30T08:19:57.256Z,9.00
2023-01-30T08:22:25.420Z,8.00
2023-01-30T08:24:53.935Z,6.00
2023-01-30T08:27:22.032Z,7.00
2023-01-30T08:29:50.123Z,10.00
2023-01-30T08:32:18.248Z,3.25
2023-01-30T08:34:46.437Z,6.75
2023-01-30T08:37:16.022Z,7.00
2023-01-30T08:39:44.144Z,8.00
2023-01-30T08:42:12.464Z,8.75
2023-01-30T08:44:40.553Z,7.25
2023-01-30T08:47:08.847Z,8.50
2023-01-30T08:49:37.065Z,6.00
2023-01-30T08:52:05.418Z,6.75
2023-01-30T08:54:35.028Z,8.00
2023-01-30T08:57:03.121Z,6.50
2023-01-30T08:59:31.260Z,10.00
2023-01-30T09:01:59.410Z,4.50
2023-01-30T09:04:27.516Z,9.50
2023-01-30T09:06:56.118Z,8.00
2023-01-30T09:09:24.657Z,9.00
2023-01-30T09:11:54.392Z,9.50
2023-01-30T09:14:22.561Z,10.50
2023-01-30T09:16:55.762Z,10.50
2023-01-30T09:19:23.979Z,12.25
2023-01-30T09:21:52.164Z,10.25
2023-01-30T09:24:20.310Z,10.00
2023-01-30T09:26:48.508Z,6.75
2023-01-30T09:29:18.190Z,12.60
2023-01-30T09:31:46.567Z,11.60
2023-01-30T09:34:15.158Z,9.60
2023-01-30T09:36:44.594Z,9.00
2023-01-30T09:39:12.744Z,12.80
2023-01-30T09:41:55.646Z,16.00
2023-01-30T09:44:38.548Z,10.00
2023-01-30T09:47:11.008Z,9.00
2023-01-30T09:49:42.269Z,9.00
2023-01-30T09:52:17.786Z,9.00
2023-01-30T09:54:47.141Z,9.20
2023-01-30T09:57:21.415Z,10.00
2023-01-30T09:59:55.725Z,10.00
2023-01-30T10:02:30.958Z,9.00
2023-01-30T10:05:02.129Z,12.00
2023-01-30T10:07:37.572Z,8.20
2023-01-30T10:10:10.621Z,15.60
2023-01-30T10:12:43.959Z,12.80
2023-01-30T10:15:24.812Z,11.20
2023-01-30T10:18:00.803Z,14.60
2023-01-30T10:20:39.201Z,6.00
2023-01-30T10:23:25.013Z,6.00
2023-01-30T10:25:55.347Z,10.40
2023-01-30T10:28:27.300Z,11.20
2023-01-30T10:30:58.304Z,10.80
2023-01-30T10:33:31.375Z,12.00
2023-01-30T10:36:01.832Z,5.20
2023-01-30T10:38:31.456Z,12.60
2023-01-30T10:41:01.985Z,10.00
2023-01-30T10:43:33.240Z,12.40
2023-01-30T10:46:05.234Z,12.20
2023-01-30T10:48:46.931Z,7.80
2023-01-30T10:51:22.660Z,9.60
2023-01-30T10:53:54.592Z,6.80
2023-01-30T10:56:27.417Z,7.40
2023-01-30T10:59:01.684Z,9.20
2023-01-30T11:01:33.401Z,9.20
2023-01-30T11:04:04.084Z,8.20
2023-01-30T11:06:32.640Z,11.60
2023-01-30T11:09:00.844Z,8.20
2023-01-30T11:11:30.510Z,13.40
2023-01-30T11:14:06.277Z,12.60
2023-01-30T11:16:35.763Z,15.40
2023-01-30T11:19:23.445Z,7.00
2023-01-30T11:21:52.305Z,12.20
2023-01-30T11:24:21.293Z,10.80
2023-01-30T11:26:49.650Z,10.00
2023-01-30T11:29:25.384Z,11.00
2023-01-30T11:31:55.185Z,10.80
2023-01-30T11:34:25.733Z,12.80
2023-01-30T11:36:54.075Z,13.00
2023-01-30T11:39:24.563Z,14.60
2023-01-30T11:42:02.018Z,9.40
2023-01-30T11:44:30.945Z,14.60
2023-01-30T11:47:02.065Z,11.60
2023-01-30T11:49:46.572Z,11.60
2023-01-30T11:52:25.620Z,13.00
2023-01-30T11:54:54.929Z,13.00
2023-01-30T11:57:23.114Z,17.20
2023-01-30T11:59:56.655Z,12.00
2023-01-30T12:02:25.890Z,12.20
2023-01-30T12:04:57.360Z,12.60
2023-01-30T12:07:26.425Z,8.20
2023-01-30T12:09:55.202Z,10.00
2023-01-30T12:12:31.441Z,9.20
2023-01-30T12:15:04.269Z,10.80
2023-01-30T12:17:36.543Z,10.80
2023-01-30T12:20:14.451Z,15.00
2023-01-30T12:22:45.818Z,9.20
2023-01-30T12:25:17.675Z,16.80
2023-01-30T12:27:52.228Z,12.00
2023-01-30T12:30:24.799Z,9.20
2023-01-30T12:32:54.603Z,12.00
2023-01-30T12:35:31.042Z,8.20
2023-01-30T12:38:04.904Z,10.00
2023-01-30T12:40:40.776Z,9.60
2023-01-30T12:43:23.698Z,10.00
2023-01-30T12:45:56.847Z,10.00
2023-01-30T12:48:38.290Z,11.20
2023-01-30T12:51:24.125Z,8.20
2023-01-30T12:53:56.315Z,9.60
2023-01-30T12:56:32.265Z,10.40
2023-01-30T12:59:02.862Z,9.00
2023-01-30T13:01:36.644Z,7.80
2023-01-30T13:04:11.562Z,9.00
2023-01-30T13:06:57.199Z,9.40
2023-01-30T13:09:38.348Z,12.00
2023-01-30T13:12:11.527Z,9.20
2023-01-30T13:14:42.528Z,10.00
2023-01-30T13:17:20.992Z,10.00
2023-01-30T13:19:53.883Z,9.40
2023-01-30T13:22:25.830Z,9.00
2023-01-30T13:24:59.457Z,7.00
2023-01-30T13:27:28.653Z,7.00
2023-01-30T13:29:57.551Z,6.50
2023-01-30T13:32:32.157Z,9.40
2023-01-30T13:35:00.747Z,6.80
2023-01-30T13:37:31.232Z,7.00
2023-01-30T13:40:02.242Z,8.20
2023-01-30T13:42:34.665Z,10.80
2023-01-30T13:45:05.457Z,13.80
2023-01-30T13:47:42.409Z,10.40
2023-01-30T13:50:23.460Z,11.60
2023-01-30T13:52:57.940Z,9.40
2023-01-30T13:55:30.642Z,6.50
2023-01-30T13:58:03.451Z,6.00
2023-01-30T14:00:32.592Z,6.00
2023-01-30T14:03:18.027Z,7.40
2023-01-30T14:06:07.499Z,6.00
2023-01-30T14:08:40.587Z,6.60
2023-01-30T14:11:23.767Z,8.20
2023-01-30T14:13:53.954Z,7.00
2023-01-30T14:16:22.435Z,4.80
2023-01-30T14:18:51.309Z,1.00
2023-01-30T14:21:21.402Z,6.60
2023-01-30T14:23:58.210Z,9.40
2023-01-30T14:26:56.250Z,7.00
2023-01-30T14:29:39.282Z,6.50
2023-01-30T14:32:32.298Z,6.75
2023-01-30T14:35:21.266Z,10.00
2023-01-30T14:37:53.612Z,12.00
2023-01-30T14:40:45.515Z,9.00
2023-01-30T14:43:37.716Z,10.50
2023-01-30T14:46:09.064Z,10.50
2023-01-30T14:48:40.445Z,5.00
2023-01-30T14:51:19.243Z,10.00
2023-01-30T14:53:52.273Z,7.00
2023-01-30T14:56:21.480Z,9.75
2023-01-30T14:58:53.368Z,10.00
2023-01-30T15:01:23.206Z,7.50
2023-01-30T15:03:52.068Z,10.00
2023-01-30T15:06:21.251Z,9.00
2023-01-30T15:08:49.543Z,2.00
2023-01-30T15:11:23.527Z,7.00
2023-01-30T15:14:03.033Z,9.00
2023-01-30T15:16:49.008Z,8.00
2023-01-30T15:19:35.820Z,6.00
2023-01-30T15:22:12.231Z,7.00
2023-01-30T15:25:02.662Z,5.00
2023-01-30T15:27:36.244Z,4.20
2023-01-30T15:30:17.394Z,6.00
2023-01-30T15:32:47.641Z,9.20
2023-01-30T15:35:29.877Z,6.60
2023-01-30T15:37:58.699Z,7.00
2023-01-30T15:40:27.686Z,6.75
2023-01-30T15:43:03.957Z,3.80
2023-01-30T15:45:38.575Z,7.25
2023-01-30T15:48:21.703Z,1.00
2023-01-30T15:50:53.890Z,3.00
2023-01-30T15:53:26.815Z,7.50
2023-01-30T15:55:55.719Z,5.00
2023-01-30T15:58:24.644Z,6.20
2023-01-30T16:00:55.219Z,6.00
2023-01-30T16:03:24.780Z,3.00
2023-01-30T16:05:55.880Z,3.50
2023-01-30T16:08:25.144Z,11.60
2023-01-30T16:10:53.904Z,1.40
2023-01-30T16:13:24.225Z,6.00
2023-01-30T16:15:56.267Z,7.00
2023-01-30T16:18:27.266Z,6.40
2023-01-30T16:21:02.733Z,4.00
2023-01-30T16:23:32.391Z,5.00
2023-01-30T16:26:01.424Z,0.50
2023-01-30T16:28:31.778Z,2.50
2023-01-30T16:31:01.708Z,3.50
2023-01-30T16:33:36.514Z,4.40
2023-01-30T16:36:08.333Z,4.00
2023-01-30T16:38:38.540Z,5.40
2023-01-30T16:41:07.460Z,7.00
2023-01-30T16:43:36.182Z,5.50
2023-01-30T16:46:22.484Z,2.50
2023-01-30T16:48:51.440Z,5.50
2023-01-30T16:51:23.546Z,5.00
2023-01-30T16:53:54.658Z,6.00
2023-01-30T16:56:25.338Z,5.80
2023-01-30T16:58:58.663Z,3.00
2023-01-30T17:01:40.090Z,4.00
2023-01-30T17:04:16.888Z,5.50
2023-01-30T17:06:53.357Z,7.00
2023-01-30T17:09:39.657Z,2.60
2023-01-30T17:12:26.484Z,6.80
2023-01-30T17:15:20.391Z,5.00
2023-01-30T17:17:48.984Z,6.00
2023-01-30T17:20:17.991Z,4.50
2023-01-30T17:22:50.331Z,5.00
2023-01-30T17:25:20.329Z,6.20
2023-01-30T17:27:50.061Z,4.00
2023-01-30T17:30:19.939Z,3.25
2023-01-30T17:32:50.959Z,6.00
2023-01-30T17:35:19.880Z,1.50
2023-01-30T17:37:59.682Z,3.00
2023-01-30T17:40:35.093Z,3.00
2023-01-30T17:43:04.156Z,3.25
2023-01-30T17:45:32.900Z,3.25
2023-01-30T17:48:02.343Z,2.50
2023-01-30T17:50:30.789Z,4.40
2023-01-30T17:53:02.085Z,1.00
2023-01-30T17:55:32.677Z,6.00
2023-01-30T17:58:04.220Z,4.50
2023-01-30T18:00:32.974Z,4.00
2023-01-30T18:03:01.817Z,3.25
2023-01-30T18:05:30.391Z,0.00
2023-01-30T18:07:58.631Z,3.25
2023-01-30T18:10:28.491Z,3.25
2023-01-30T18:12:56.716Z,9.60
2023-01-30T18:15:25.160Z,4.00
2023-01-30T18:17:55.158Z,7.00
2023-01-30T18:20:24.010Z,4.50
2023-01-30T18:22:52.701Z,1.00
2023-01-30T18:25:22.537Z,3.00
2023-01-30T18:27:52.891Z,3.25
2023-01-30T18:30:24.625Z,6.20
2023-01-30T18:32:53.998Z,2.80
2023-01-30T18:35:23.490Z,3.20
2023-01-30T18:37:52.025Z,6.40
2023-01-30T18:40:20.796Z,3.75
2023-01-30T18:42:49.380Z,4.50
2023-01-30T18:45:19.232Z,20.60
2023-01-30T18:47:47.399Z,3.00
2023-01-30T18:50:15.658Z,3.00
2023-01-30T18:52:44.042Z,1.67
2023-01-30T18:55:13.569Z,3.25
2023-01-30T18:57:42.208Z,5.50
2023-01-30T19:00:11.083Z,2.00
2023-01-30T19:02:40.883Z,3.25
2023-01-30T19:05:09.727Z,3.50
2023-01-30T19:07:37.979Z,3.00
2023-01-30T19:10:06.611Z,4.00
2023-01-30T19:12:52.567Z,2.50
2023-01-30T19:15:20.871Z,3.00
2023-01-30T19:17:50.865Z,3.50
2023-01-30T19:20:22.207Z,3.25
2023-01-30T19:22:51.434Z,3.50
2023-01-30T19:25:19.757Z,3.75
2023-01-30T19:27:47.936Z,4.00
2023-01-30T19:30:16.811Z,0.00
2023-01-30T19:32:45.345Z,4.00
2023-01-30T19:35:14.905Z,6.25
2023-01-30T19:37:43.031Z,4.00
2023-01-30T19:40:13.918Z,1.00
2023-01-30T19:42:44.288Z,3.00
2023-01-30T19:45:17.238Z,6.00
2023-01-30T19:47:45.760Z,3.25
2023-01-30T19:50:16.455Z,3.50
2023-01-30T19:52:45.272Z,0.00
2023-01-30T19:55:13.861Z,2.50
2023-01-30T19:57:42.588Z,1.00
2023-01-30T20:00:12.046Z,0.00
2023-01-30T20:02:40.507Z,5.00
2023-01-30T20:05:10.078Z,1.50
2023-01-30T20:07:39.829Z,4.00
2023-01-30T20:10:08.516Z,3.50
2023-01-30T20:12:37.111Z,3.00
2023-01-30T20:15:05.795Z,3.50
2023-01-30T20:17:34.013Z,4.25
2023-01-30T20:20:02.338Z,7.50
2023-01-30T20:22:31.896Z,6.00
2023-01-30T20:25:01.501Z,6.25
2023-01-30T20:27:30.764Z,9.00
2023-01-30T20:29:58.937Z,4.00
2023-01-30T20:32:27.373Z,3.75
2023-01-30T20:34:55.509Z,6.00
2023-01-30T20:37:23.680Z,3.75
2023-01-30T20:39:51.839Z,4.00
2023-01-30T20:42:22.001Z,3.00
2023-01-30T20:44:50.272Z,1.00
2023-01-30T20:47:18.385Z,3.00
2023-01-30T20:49:46.481Z,3.75
2023-01-30T20:52:14.653Z,3.00
2023-01-30T20:54:42.785Z,4.00
2023-01-30T20:57:11.315Z,3.50
2023-01-30T20:59:41.897Z,2.00
2023-01-30T21:02:10.509Z,3.75
2023-01-30T21:04:39.704Z,1.50
2023-01-30T21:07:07.889Z,1.00
2023-01-30T21:09:36.073Z,2.00
2023-01-30T21:12:04.459Z,4.50
2023-01-30T21:14:32.666Z,6.00
2023-01-30T21:17:02.229Z,4.50
2023-01-30T21:19:30.401Z,6.00
2023-01-30T21:21:58.646Z,6.00
2023-01-30T21:24:27.970Z,6.25
2023-01-30T21:26:57.056Z,1.50
2023-01-30T21:29:26.536Z,5.50
2023-01-30T21:31:54.905Z,6.50
2023-01-30T21:34:24.463Z,3.25
2023-01-30T21:37:06.401Z,4.00
2023-01-30T21:39:51.819Z,6.50
2023-01-30T21:42:37.845Z,4.50
2023-01-30T21:45:06.951Z,6.00
2023-01-30T21:47:35.217Z,4.50
2023-01-30T21:50:04.889Z,6.00
2023-01-30T21:52:34.364Z,4.00
2023-01-30T21:55:02.491Z,3.75
2023-01-30T21:57:31.803Z,5.00
2023-01-30T21:59:59.902Z,4.00
2023-01-30T22:02:28.106Z,5.50
2023-01-30T22:04:56.230Z,3.75
2023-01-30T22:07:25.713Z,3.75
2023-01-30T22:09:54.096Z,6.00
2023-01-30T22:12:22.566Z,4.00
2023-01-30T22:14:50.681Z,6.00
2023-01-30T22:17:18.819Z,0.40
2023-01-30T22:19:46.925Z,4.80
2023-01-30T22:22:15.166Z,4.00
2023-01-30T22:24:44.678Z,4.80
2023-01-30T22:27:12.778Z,4.00
2023-01-30T22:29:40.852Z,4.00
2023-01-30T22:32:09.150Z,4.00
2023-01-30T22:34:37.280Z,6.00
2023-01-30T22:37:05.401Z,4.00
2023-01-30T22:39:33.529Z,6.20
2023-01-30T22:42:03.144Z,9.00
2023-01-30T22:44:31.281Z,0.50
2023-01-30T22:46:59.473Z,5.50
2023-01-30T22:49:27.726Z,0.75
2023-01-30T22:51:55.838Z,6.75
2023-01-30T22:54:24.900Z,6.25
2023-01-30T22:56:53.413Z,6.25
2023-01-30T22:59:23.088Z,3.00
2023-01-30T23:01:52.125Z,4.50
2023-01-30T23:04:21.512Z,6.75
2023-01-30T23:06:51.481Z,2.00
2023-01-30T23:09:20.532Z,3.00
2023-01-30T23:12:10.249Z,1.00
2023-01-30T23:14:40.503Z,4.00
2023-01-30T23:17:22.500Z,6.25
2023-01-30T23:19:50.594Z,6.00
2023-01-30T23:22:19.102Z,7.00
2023-01-30T23:24:48.764Z,6.25
2023-01-30T23:27:17.090Z,7.00
2023-01-30T23:29:46.609Z,3.75
2023-01-30T23:32:15.203Z,8.50
2023-01-30T23:34:43.418Z,6.00
2023-01-30T23:37:11.557Z,6.00
2023-01-30T23:39:40.041Z,7.00
2023-01-30T23:42:08.305Z,6.50
2023-01-30T23:44:36.484Z,2.50
2023-01-30T23:47:06.018Z,4.00
2023-01-30T23:49:34.313Z,8.00
2023-01-30T23:52:02.393Z,10.00
2023-01-30T23:54:30.471Z,3.75
2023-01-30T23:56:58.736Z,7.00
2023-01-30T23:59:26.849Z,7.00
